sensor_id;sensor_type;location;lat;lon;timestamp;P1;durP1;ratioP1;P2;durP2;ratioP2
7703;SDS011;3894;49.700;10.770;2023-03-01T00:01:23;14.43;;;6.43;;
7703;SDS011;3894;49.700;10.770;2023-03-01T00:03:51;17.58;;;7.53;;
7703;SDS011;3894;49.700;10.770;2023-03-01T00:06:18;14.43;;;6.03;;
7703;SDS011;3894;49.700;10.770;2023-03-01T00:08:44;18.10;;;5.97;;
7703;SDS011;3894;49.700;10.770;2023-03-01T00:11:15;16.15;;;6.47;;
7703;SDS011;3894;49.700;10.770;2023-03-01T00:13:43;15.95;;;6.20;;
7703;SDS011;3894;49.700;10.770;2023-03-01T00:16:11;16.02;;;6.47;;
7703;SDS011;3894;49.700;10.770;2023-03-01T00:18:41;17.02;;;6.10;;
7703;SDS011;3894;49.700;10.770;2023-03-01T00:21:07;17.02;;;6.78;;
7703;SDS011;3894;49.700;10.770;2023-03-01T00:23:33;18.00;;;6.85;;
7703;SDS011;3894;49.700;10.770;2023-03-01T00:26:00;16.88;;;6.25;;
7703;SDS011;3894;49.700;10.770;2023-03-01T00:28:26;17.38;;;6.40;;
7703;SDS011;3894;49.700;10.770;2023-03-01T00:30:52;20.48;;;6.88;;
7703;SDS011;3894;49.700;10.770;2023-03-01T00:33:18;19.38;;;7.75;;
7703;SDS011;3894;49.700;10.770;2023-03-01T00:35:44;23.20;;;6.97;;
7703;SDS011;3894;49.700;10.770;2023-03-01T00:38:10;17.77;;;6.43;;
7703;SDS011;3894;49.700;10.770;2023-03-01T00:40:36;13.80;;;6.03;;
7703;SDS011;3894;49.700;10.770;2023-03-01T00:43:02;17.25;;;6.50;;
7703;SDS011;3894;49.700;10.770;2023-03-01T00:45:28;16.77;;;6.43;;
7703;SDS011;3894;49.700;10.770;2023-03-01T00:47:55;17.00;;;6.53;;
7703;SDS011;3894;49.700;10.770;2023-03-01T00:50:23;17.67;;;6.80;;
7703;SDS011;3894;49.700;10.770;2023-03-01T00:52:57;17.80;;;7.50;;
7703;SDS011;3894;49.700;10.770;2023-03-01T00:55:23;16.50;;;6.70;;
7703;SDS011;3894;49.700;10.770;2023-03-01T00:57:55;16.08;;;6.43;;
7703;SDS011;3894;49.700;10.770;2023-03-01T01:00:21;18.15;;;6.47;;
7703;SDS011;3894;49.700;10.770;2023-03-01T01:02:46;18.02;;;6.43;;
7703;SDS011;3894;49.700;10.770;2023-03-01T01:05:12;15.10;;;6.68;;
7703;SDS011;3894;49.700;10.770;2023-03-01T01:07:38;16.02;;;6.38;;
7703;SDS011;3894;49.700;10.770;2023-03-01T01:10:04;13.82;;;6.10;;
7703;SDS011;3894;49.700;10.770;2023-03-01T01:12:37;16.58;;;6.25;;
7703;SDS011;3894;49.700;10.770;2023-03-01T01:15:03;17.70;;;6.65;;
7703;SDS011;3894;49.700;10.770;2023-03-01T01:17:29;18.48;;;6.75;;
7703;SDS011;3894;49.700;10.770;2023-03-01T01:19:54;14.95;;;6.47;;
7703;SDS011;3894;49.700;10.770;2023-03-01T01:22:20;15.07;;;6.18;;
7703;SDS011;3894;49.700;10.770;2023-03-01T01:24:46;19.00;;;6.40;;
7703;SDS011;3894;49.700;10.770;2023-03-01T01:27:14;15.73;;;6.47;;
7703;SDS011;3894;49.700;10.770;2023-03-01T01:29:43;16.85;;;7.00;;
7703;SDS011;3894;49.700;10.770;2023-03-01T01:32:08;16.45;;;6.85;;
7703;SDS011;3894;49.700;10.770;2023-03-01T01:34:34;16.25;;;6.47;;
7703;SDS011;3894;49.700;10.770;2023-03-01T01:37:00;16.30;;;5.78;;
7703;SDS011;3894;49.700;10.770;2023-03-01T01:39:30;19.58;;;7.13;;
7703;SDS011;3894;49.700;10.770;2023-03-01T01:41:56;16.48;;;6.80;;
7703;SDS011;3894;49.700;10.770;2023-03-01T01:44:26;17.23;;;7.03;;
7703;SDS011;3894;49.700;10.770;2023-03-01T01:46:53;13.63;;;6.25;;
7703;SDS011;3894;49.700;10.770;2023-03-01T01:57:13;19.58;;;6.10;;
7703;SDS011;3894;49.700;10.770;2023-03-01T01:59:43;17.45;;;6.47;;
7703;SDS011;3894;49.700;10.770;2023-03-01T02:02:13;18.23;;;6.88;;
7703;SDS011;3894;49.700;10.770;2023-03-01T02:04:39;16.08;;;6.32;;
7703;SDS011;3894;49.700;10.770;2023-03-01T02:07:15;18.30;;;6.63;;
7703;SDS011;3894;49.700;10.770;2023-03-01T02:09:45;16.60;;;6.15;;
7703;SDS011;3894;49.700;10.770;2023-03-01T02:12:16;15.73;;;6.72;;
7703;SDS011;3894;49.700;10.770;2023-03-01T02:14:44;18.15;;;6.28;;
7703;SDS011;3894;49.700;10.770;2023-03-01T02:17:10;16.58;;;6.78;;
7703;SDS011;3894;49.700;10.770;2023-03-01T02:19:48;17.55;;;5.97;;
7703;SDS011;3894;49.700;10.770;2023-03-01T02:22:24;17.90;;;6.72;;
7703;SDS011;3894;49.700;10.770;2023-03-01T02:30:18;15.30;;;5.97;;
7703;SDS011;3894;49.700;10.770;2023-03-01T02:32:45;17.35;;;6.25;;
7703;SDS011;3894;49.700;10.770;2023-03-01T02:35:16;17.88;;;6.88;;
7703;SDS011;3894;49.700;10.770;2023-03-01T02:37:45;19.63;;;6.22;;
7703;SDS011;3894;49.700;10.770;2023-03-01T02:40:16;16.05;;;6.70;;
7703;SDS011;3894;49.700;10.770;2023-03-01T02:42:48;17.02;;;6.40;;
7703;SDS011;3894;49.700;10.770;2023-03-01T02:45:16;17.25;;;6.22;;
7703;SDS011;3894;49.700;10.770;2023-03-01T02:47:42;17.50;;;6.47;;
7703;SDS011;3894;49.700;10.770;2023-03-01T02:50:13;16.63;;;6.05;;
7703;SDS011;3894;49.700;10.770;2023-03-01T02:52:56;14.88;;;6.13;;
7703;SDS011;3894;49.700;10.770;2023-03-01T02:55:26;17.23;;;6.82;;
7703;SDS011;3894;49.700;10.770;2023-03-01T02:57:52;15.05;;;5.90;;
7703;SDS011;3894;49.700;10.770;2023-03-01T03:00:23;14.57;;;6.70;;
7703;SDS011;3894;49.700;10.770;2023-03-01T03:02:53;16.77;;;6.10;;
7703;SDS011;3894;49.700;10.770;2023-03-01T03:05:29;16.55;;;6.30;;
7703;SDS011;3894;49.700;10.770;2023-03-01T03:07:55;17.60;;;6.45;;
7703;SDS011;3894;49.700;10.770;2023-03-01T03:10:26;17.23;;;6.97;;
7703;SDS011;3894;49.700;10.770;2023-03-01T03:12:59;16.25;;;6.22;;
7703;SDS011;3894;49.700;10.770;2023-03-01T03:15:31;14.98;;;7.05;;
7703;SDS011;3894;49.700;10.770;2023-03-01T03:18:00;21.75;;;6.70;;
7703;SDS011;3894;49.700;10.770;2023-03-01T03:20:27;15.60;;;6.22;;
7703;SDS011;3894;49.700;10.770;2023-03-01T03:22:54;17.20;;;6.95;;
7703;SDS011;3894;49.700;10.770;2023-03-01T03:25:26;18.38;;;6.40;;
7703;SDS011;3894;49.700;10.770;2023-03-01T03:27:53;14.27;;;6.05;;
7703;SDS011;3894;49.700;10.770;2023-03-01T03:30:30;19.35;;;7.22;;
7703;SDS011;3894;49.700;10.770;2023-03-01T03:32:57;19.10;;;6.57;;
7703;SDS011;3894;49.700;10.770;2023-03-01T03:37:54;19.80;;;6.97;;
7703;SDS011;3894;49.700;10.770;2023-03-01T03:40:28;19.25;;;7.38;;
7703;SDS011;3894;49.700;10.770;2023-03-01T03:43:05;17.88;;;6.75;;
7703;SDS011;3894;49.700;10.770;2023-03-01T03:45:35;18.63;;;6.35;;
7703;SDS011;3894;49.700;10.770;2023-03-01T03:48:02;17.35;;;6.93;;
7703;SDS011;3894;49.700;10.770;2023-03-01T03:50:31;16.42;;;6.35;;
7703;SDS011;3894;49.700;10.770;2023-03-01T03:53:00;17.13;;;6.50;;
7703;SDS011;3894;49.700;10.770;2023-03-01T03:55:29;18.13;;;6.93;;
7703;SDS011;3894;49.700;10.770;2023-03-01T03:57:57;17.73;;;7.90;;
7703;SDS011;3894;49.700;10.770;2023-03-01T04:00:27;18.80;;;7.35;;
7703;SDS011;3894;49.700;10.770;2023-03-01T04:02:53;14.15;;;6.88;;
7703;SDS011;3894;49.700;10.770;2023-03-01T04:05:21;20.65;;;6.68;;
7703;SDS011;3894;49.700;10.770;2023-03-01T04:07:49;15.95;;;6.13;;
7703;SDS011;3894;49.700;10.770;2023-03-01T04:10:25;18.10;;;7.20;;
7703;SDS011;3894;49.700;10.770;2023-03-01T04:12:55;18.67;;;6.63;;
7703;SDS011;3894;49.700;10.770;2023-03-01T04:17:51;18.42;;;6.05;;
7703;SDS011;3894;49.700;10.770;2023-03-01T04:20:24;16.83;;;6.78;;
7703;SDS011;3894;49.700;10.770;2023-03-01T04:22:59;17.80;;;6.10;;
7703;SDS011;3894;49.700;10.770;2023-03-01T04:25:41;16.38;;;6.30;;
7703;SDS011;3894;49.700;10.770;2023-03-01T04:28:10;19.50;;;7.18;;
7703;SDS011;3894;49.700;10.770;2023-03-01T04:30:36;21.88;;;7.03;;
7703;SDS011;3894;49.700;10.770;2023-03-01T04:33:05;20.13;;;6.78;;
7703;SDS011;3894;49.700;10.770;2023-03-01T04:37:57;16.50;;;6.97;;
7703;SDS011;3894;49.700;10.770;2023-03-01T04:40:23;19.17;;;7.47;;
7703;SDS011;3894;49.700;10.770;2023-03-01T04:42:48;14.45;;;5.72;;
7703;SDS011;3894;49.700;10.770;2023-03-01T04:45:14;17.88;;;6.53;;
7703;SDS011;3894;49.700;10.770;2023-03-01T04:50:12;15.32;;;6.40;;
7703;SDS011;3894;49.700;10.770;2023-03-01T04:52:41;13.50;;;5.97;;
7703;SDS011;3894;49.700;10.770;2023-03-01T04:55:07;18.02;;;6.60;;
7703;SDS011;3894;49.700;10.770;2023-03-01T04:57:33;18.85;;;7.28;;
7703;SDS011;3894;49.700;10.770;2023-03-01T05:00:05;15.82;;;6.40;;
7703;SDS011;3894;49.700;10.770;2023-03-01T05:02:54;19.38;;;6.85;;
7703;SDS011;3894;49.700;10.770;2023-03-01T05:05:23;20.20;;;7.28;;
7703;SDS011;3894;49.700;10.770;2023-03-01T05:07:54;16.00;;;6.65;;
7703;SDS011;3894;49.700;10.770;2023-03-01T05:12:55;14.75;;;6.45;;
7703;SDS011;3894;49.700;10.770;2023-03-01T05:15:23;15.48;;;6.30;;
7703;SDS011;3894;49.700;10.770;2023-03-01T05:17:53;15.70;;;6.65;;
7703;SDS011;3894;49.700;10.770;2023-03-01T05:20:25;18.70;;;6.68;;
7703;SDS011;3894;49.700;10.770;2023-03-01T05:22:54;19.50;;;7.13;;
7703;SDS011;3894;49.700;10.770;2023-03-01T05:25:24;20.55;;;7.97;;
7703;SDS011;3894;49.700;10.770;2023-03-01T05:27:50;18.88;;;6.95;;
7703;SDS011;3894;49.700;10.770;2023-03-01T05:30:16;17.67;;;6.93;;
7703;SDS011;3894;49.700;10.770;2023-03-01T05:32:47;20.85;;;7.95;;
7703;SDS011;3894;49.700;10.770;2023-03-01T05:35:15;18.00;;;6.75;;
7703;SDS011;3894;49.700;10.770;2023-03-01T05:37:42;18.85;;;7.88;;
7703;SDS011;3894;49.700;10.770;2023-03-01T05:40:13;17.73;;;6.95;;
7703;SDS011;3894;49.700;10.770;2023-03-01T05:42:42;20.83;;;7.70;;
7703;SDS011;3894;49.700;10.770;2023-03-01T05:45:14;18.15;;;6.93;;
7703;SDS011;3894;49.700;10.770;2023-03-01T05:47:41;20.25;;;7.68;;
7703;SDS011;3894;49.700;10.770;2023-03-01T05:50:15;20.50;;;7.15;;
7703;SDS011;3894;49.700;10.770;2023-03-01T05:52:50;19.15;;;6.82;;
7703;SDS011;3894;49.700;10.770;2023-03-01T05:55:17;17.02;;;7.00;;
7703;SDS011;3894;49.700;10.770;2023-03-01T05:57:46;20.38;;;7.55;;
7703;SDS011;3894;49.700;10.770;2023-03-01T06:00:16;19.45;;;7.43;;
7703;SDS011;3894;49.700;10.770;2023-03-01T06:02:43;20.55;;;7.82;;
7703;SDS011;3894;49.700;10.770;2023-03-01T06:05:14;19.33;;;7.30;;
7703;SDS011;3894;49.700;10.770;2023-03-01T06:07:42;18.08;;;7.57;;
7703;SDS011;3894;49.700;10.770;2023-03-01T06:10:11;17.73;;;7.28;;
7703;SDS011;3894;49.700;10.770;2023-03-01T06:12:40;24.77;;;7.80;;
7703;SDS011;3894;49.700;10.770;2023-03-01T06:15:07;16.55;;;6.97;;
7703;SDS011;3894;49.700;10.770;2023-03-01T06:17:35;18.73;;;7.25;;
7703;SDS011;3894;49.700;10.770;2023-03-01T06:20:05;19.63;;;7.95;;
7703;SDS011;3894;49.700;10.770;2023-03-01T06:22:33;16.60;;;7.78;;
7703;SDS011;3894;49.700;10.770;2023-03-01T06:25:11;17.48;;;7.43;;
7703;SDS011;3894;49.700;10.770;2023-03-01T06:27:39;19.00;;;7.38;;
7703;SDS011;3894;49.700;10.770;2023-03-01T06:30:14;18.35;;;7.85;;
7703;SDS011;3894;49.700;10.770;2023-03-01T06:32:44;17.35;;;6.80;;
7703;SDS011;3894;49.700;10.770;2023-03-01T06:35:10;20.75;;;7.53;;
7703;SDS011;3894;49.700;10.770;2023-03-01T06:37:42;18.20;;;7.72;;
7703;SDS011;3894;49.700;10.770;2023-03-01T06:40:11;23.83;;;7.97;;
7703;SDS011;3894;49.700;10.770;2023-03-01T06:42:42;22.58;;;7.57;;
7703;SDS011;3894;49.700;10.770;2023-03-01T06:45:13;20.75;;;8.13;;
7703;SDS011;3894;49.700;10.770;2023-03-01T06:47:39;19.45;;;8.38;;
7703;SDS011;3894;49.700;10.770;2023-03-01T06:52:33;18.63;;;7.32;;
7703;SDS011;3894;49.700;10.770;2023-03-01T06:54:59;18.23;;;7.80;;
7703;SDS011;3894;49.700;10.770;2023-03-01T06:57:34;20.77;;;8.35;;
7703;SDS011;3894;49.700;10.770;2023-03-01T07:00:00;17.85;;;7.47;;
7703;SDS011;3894;49.700;10.770;2023-03-01T07:02:26;24.38;;;8.70;;
7703;SDS011;3894;49.700;10.770;2023-03-01T07:04:53;19.58;;;7.65;;
7703;SDS011;3894;49.700;10.770;2023-03-01T07:07:19;27.00;;;8.98;;
7703;SDS011;3894;49.700;10.770;2023-03-01T07:09:45;41.00;;;12.07;;
7703;SDS011;3894;49.700;10.770;2023-03-01T07:12:11;40.35;;;13.85;;
7703;SDS011;3894;49.700;10.770;2023-03-01T07:14:39;22.58;;;9.02;;
7703;SDS011;3894;49.700;10.770;2023-03-01T07:17:05;23.70;;;9.27;;
7703;SDS011;3894;49.700;10.770;2023-03-01T07:21:59;18.77;;;6.75;;
7703;SDS011;3894;49.700;10.770;2023-03-01T07:24:24;17.00;;;7.32;;
7703;SDS011;3894;49.700;10.770;2023-03-01T07:26:53;19.92;;;8.15;;
7703;SDS011;3894;49.700;10.770;2023-03-01T07:29:18;19.45;;;7.25;;
7703;SDS011;3894;49.700;10.770;2023-03-01T07:31:44;21.88;;;8.30;;
7703;SDS011;3894;49.700;10.770;2023-03-01T07:34:18;20.73;;;9.02;;
7703;SDS011;3894;49.700;10.770;2023-03-01T07:36:44;20.40;;;8.77;;
7703;SDS011;3894;49.700;10.770;2023-03-01T07:39:10;19.67;;;8.38;;
7703;SDS011;3894;49.700;10.770;2023-03-01T07:41:36;21.23;;;9.18;;
7703;SDS011;3894;49.700;10.770;2023-03-01T07:44:04;17.77;;;6.35;;
7703;SDS011;3894;49.700;10.770;2023-03-01T07:46:30;21.00;;;7.82;;
7703;SDS011;3894;49.700;10.770;2023-03-01T07:48:56;19.50;;;7.72;;
7703;SDS011;3894;49.700;10.770;2023-03-01T07:51:22;16.10;;;7.25;;
7703;SDS011;3894;49.700;10.770;2023-03-01T07:53:48;26.20;;;9.05;;
7703;SDS011;3894;49.700;10.770;2023-03-01T07:56:14;21.65;;;8.27;;
7703;SDS011;3894;49.700;10.770;2023-03-01T07:58:43;19.20;;;7.85;;
7703;SDS011;3894;49.700;10.770;2023-03-01T08:01:11;19.05;;;8.27;;
7703;SDS011;3894;49.700;10.770;2023-03-01T08:03:41;17.52;;;6.88;;
7703;SDS011;3894;49.700;10.770;2023-03-01T08:06:13;17.58;;;6.95;;
7703;SDS011;3894;49.700;10.770;2023-03-01T08:08:43;21.85;;;9.52;;
7703;SDS011;3894;49.700;10.770;2023-03-01T08:11:13;19.85;;;7.80;;
7703;SDS011;3894;49.700;10.770;2023-03-01T08:13:42;17.48;;;7.25;;
7703;SDS011;3894;49.700;10.770;2023-03-01T08:16:17;18.30;;;7.68;;
7703;SDS011;3894;49.700;10.770;2023-03-01T08:18:43;16.75;;;7.07;;
7703;SDS011;3894;49.700;10.770;2023-03-01T08:21:12;19.05;;;7.97;;
7703;SDS011;3894;49.700;10.770;2023-03-01T08:23:44;19.65;;;7.80;;
7703;SDS011;3894;49.700;10.770;2023-03-01T08:26:14;19.25;;;7.90;;
7703;SDS011;3894;49.700;10.770;2023-03-01T08:28:42;19.88;;;6.88;;
7703;SDS011;3894;49.700;10.770;2023-03-01T08:33:40;21.55;;;7.85;;
7703;SDS011;3894;49.700;10.770;2023-03-01T08:36:06;20.63;;;8.55;;
7703;SDS011;3894;49.700;10.770;2023-03-01T08:38:32;21.73;;;8.05;;
7703;SDS011;3894;49.700;10.770;2023-03-01T08:41:06;19.75;;;8.18;;
7703;SDS011;3894;49.700;10.770;2023-03-01T08:43:32;19.48;;;7.47;;
7703;SDS011;3894;49.700;10.770;2023-03-01T08:45:58;20.92;;;7.22;;
7703;SDS011;3894;49.700;10.770;2023-03-01T08:48:23;20.27;;;8.30;;
7703;SDS011;3894;49.700;10.770;2023-03-01T08:50:50;20.65;;;8.32;;
7703;SDS011;3894;49.700;10.770;2023-03-01T08:53:18;21.80;;;7.85;;
7703;SDS011;3894;49.700;10.770;2023-03-01T08:55:44;19.27;;;8.00;;
7703;SDS011;3894;49.700;10.770;2023-03-01T08:58:10;19.77;;;8.02;;
7703;SDS011;3894;49.700;10.770;2023-03-01T09:00:35;19.40;;;8.25;;
7703;SDS011;3894;49.700;10.770;2023-03-01T09:03:01;16.20;;;7.85;;
7703;SDS011;3894;49.700;10.770;2023-03-01T09:05:33;17.08;;;8.05;;
7703;SDS011;3894;49.700;10.770;2023-03-01T09:08:01;18.63;;;7.93;;
7703;SDS011;3894;49.700;10.770;2023-03-01T09:10:27;17.20;;;8.75;;
7703;SDS011;3894;49.700;10.770;2023-03-01T09:12:52;20.88;;;7.80;;
7703;SDS011;3894;49.700;10.770;2023-03-01T09:15:18;20.73;;;8.73;;
7703;SDS011;3894;49.700;10.770;2023-03-01T09:17:46;19.00;;;7.68;;
7703;SDS011;3894;49.700;10.770;2023-03-01T09:20:12;17.88;;;8.13;;
7703;SDS011;3894;49.700;10.770;2023-03-01T09:22:37;22.50;;;8.80;;
7703;SDS011;3894;49.700;10.770;2023-03-01T09:25:03;18.17;;;7.38;;
7703;SDS011;3894;49.700;10.770;2023-03-01T09:27:32;19.00;;;7.82;;
7703;SDS011;3894;49.700;10.770;2023-03-01T09:29:57;18.90;;;7.22;;
7703;SDS011;3894;49.700;10.770;2023-03-01T09:32:23;19.20;;;8.98;;
7703;SDS011;3894;49.700;10.770;2023-03-01T09:34:48;16.92;;;7.35;;
7703;SDS011;3894;49.700;10.770;2023-03-01T09:37:28;17.25;;;7.68;;
7703;SDS011;3894;49.700;10.770;2023-03-01T09:39:54;17.40;;;7.18;;
7703;SDS011;3894;49.700;10.770;2023-03-01T09:42:20;19.65;;;8.07;;
7703;SDS011;3894;49.700;10.770;2023-03-01T09:44:56;18.30;;;6.82;;
7703;SDS011;3894;49.700;10.770;2023-03-01T09:47:30;19.98;;;7.60;;
7703;SDS011;3894;49.700;10.770;2023-03-01T09:50:04;16.08;;;7.38;;
7703;SDS011;3894;49.700;10.770;2023-03-01T09:55:25;18.88;;;6.82;;
7703;SDS011;3894;49.700;10.770;2023-03-01T10:09:43;18.65;;;7.85;;
7703;SDS011;3894;49.700;10.770;2023-03-01T10:12:15;16.85;;;7.72;;
7703;SDS011;3894;49.700;10.770;2023-03-01T10:17:27;19.73;;;6.57;;
7703;SDS011;3894;49.700;10.770;2023-03-01T10:22:43;20.17;;;8.38;;
7703;SDS011;3894;49.700;10.770;2023-03-01T10:25:14;18.65;;;7.10;;
7703;SDS011;3894;49.700;10.770;2023-03-01T10:30:30;20.05;;;7.80;;
7703;SDS011;3894;49.700;10.770;2023-03-01T10:33:01;20.95;;;8.00;;
7703;SDS011;3894;49.700;10.770;2023-03-01T10:35:42;18.40;;;7.63;;
7703;SDS011;3894;49.700;10.770;2023-03-01T10:38:12;15.90;;;7.15;;
7703;SDS011;3894;49.700;10.770;2023-03-01T10:40:58;16.88;;;7.05;;
7703;SDS011;3894;49.700;10.770;2023-03-01T10:46:22;17.42;;;7.20;;
7703;SDS011;3894;49.700;10.770;2023-03-01T10:49:06;18.20;;;7.60;;
7703;SDS011;3894;49.700;10.770;2023-03-01T10:51:36;17.00;;;7.43;;
7703;SDS011;3894;49.700;10.770;2023-03-01T10:54:04;17.17;;;6.68;;
7703;SDS011;3894;49.700;10.770;2023-03-01T10:56:56;18.23;;;7.38;;
7703;SDS011;3894;49.700;10.770;2023-03-01T10:59:31;15.60;;;6.88;;
7703;SDS011;3894;49.700;10.770;2023-03-01T11:05:13;16.65;;;6.50;;
7703;SDS011;3894;49.700;10.770;2023-03-01T11:07:57;19.65;;;8.20;;
7703;SDS011;3894;49.700;10.770;2023-03-01T11:10:52;18.67;;;7.10;;
7703;SDS011;3894;49.700;10.770;2023-03-01T11:14:14;16.90;;;6.60;;
7703;SDS011;3894;49.700;10.770;2023-03-01T11:17:33;17.67;;;6.57;;
7703;SDS011;3894;49.700;10.770;2023-03-01T11:22:49;16.70;;;7.47;;
7703;SDS011;3894;49.700;10.770;2023-03-01T11:25:23;16.60;;;7.03;;
7703;SDS011;3894;49.700;10.770;2023-03-01T11:27:58;16.02;;;7.18;;
7703;SDS011;3894;49.700;10.770;2023-03-01T11:33:37;17.35;;;7.03;;
7703;SDS011;3894;49.700;10.770;2023-03-01T11:36:07;14.60;;;6.97;;
7703;SDS011;3894;49.700;10.770;2023-03-01T11:38:49;14.90;;;6.60;;
7703;SDS011;3894;49.700;10.770;2023-03-01T11:41:23;17.17;;;6.65;;
7703;SDS011;3894;49.700;10.770;2023-03-01T11:44:00;16.55;;;6.15;;
7703;SDS011;3894;49.700;10.770;2023-03-01T12:36:12;18.45;;;6.53;;
7703;SDS011;3894;49.700;10.770;2023-03-01T12:38:51;15.45;;;7.28;;
7703;SDS011;3894;49.700;10.770;2023-03-01T13:04:02;16.27;;;6.18;;
7703;SDS011;3894;49.700;10.770;2023-03-01T13:15:25;16.73;;;7.05;;
7703;SDS011;3894;49.700;10.770;2023-03-01T13:20:45;14.50;;;6.13;;
7703;SDS011;3894;49.700;10.770;2023-03-01T14:04:55;15.20;;;6.55;;
7703;SDS011;3894;49.700;10.770;2023-03-01T14:07:22;17.50;;;7.40;;
7703;SDS011;3894;49.700;10.770;2023-03-01T14:10:15;17.35;;;6.70;;
7703;SDS011;3894;49.700;10.770;2023-03-01T14:12:44;16.48;;;7.00;;
7703;SDS011;3894;49.700;10.770;2023-03-01T14:20:46;18.67;;;6.10;;
7703;SDS011;3894;49.700;10.770;2023-03-01T14:23:17;16.08;;;6.63;;
7703;SDS011;3894;49.700;10.770;2023-03-01T14:25:50;14.70;;;6.35;;
7703;SDS011;3894;49.700;10.770;2023-03-01T14:28:19;15.48;;;7.18;;
7703;SDS011;3894;49.700;10.770;2023-03-01T14:30:55;18.20;;;7.47;;
7703;SDS011;3894;49.700;10.770;2023-03-01T14:33:27;13.32;;;7.35;;
7703;SDS011;3894;49.700;10.770;2023-03-01T15:53:34;15.65;;;6.50;;
7703;SDS011;3894;49.700;10.770;2023-03-01T15:55:59;16.27;;;6.80;;
7703;SDS011;3894;49.700;10.770;2023-03-01T15:58:25;14.73;;;6.63;;
7703;SDS011;3894;49.700;10.770;2023-03-01T16:00:51;16.20;;;6.22;;
7703;SDS011;3894;49.700;10.770;2023-03-01T16:16:17;15.75;;;6.63;;
7703;SDS011;3894;49.700;10.770;2023-03-01T16:18:44;14.50;;;5.50;;
7703;SDS011;3894;49.700;10.770;2023-03-01T16:21:15;15.95;;;6.38;;
7703;SDS011;3894;49.700;10.770;2023-03-01T16:23:45;13.82;;;5.63;;
7703;SDS011;3894;49.700;10.770;2023-03-01T16:26:10;13.75;;;6.88;;
7703;SDS011;3894;49.700;10.770;2023-03-01T16:28:37;17.00;;;6.05;;
7703;SDS011;3894;49.700;10.770;2023-03-01T16:31:04;14.57;;;6.10;;
7703;SDS011;3894;49.700;10.770;2023-03-01T16:33:30;15.05;;;6.18;;
7703;SDS011;3894;49.700;10.770;2023-03-01T16:35:56;15.50;;;6.30;;
7703;SDS011;3894;49.700;10.770;2023-03-01T16:38:22;15.20;;;6.25;;
7703;SDS011;3894;49.700;10.770;2023-03-01T16:40:49;15.20;;;6.75;;
7703;SDS011;3894;49.700;10.770;2023-03-01T16:43:16;14.38;;;5.43;;
7703;SDS011;3894;49.700;10.770;2023-03-01T16:45:41;15.95;;;6.85;;
7703;SDS011;3894;49.700;10.770;2023-03-01T16:48:09;14.25;;;5.97;;
7703;SDS011;3894;49.700;10.770;2023-03-01T16:50:35;15.35;;;5.72;;
7703;SDS011;3894;49.700;10.770;2023-03-01T16:53:01;14.13;;;5.93;;
7703;SDS011;3894;49.700;10.770;2023-03-01T16:55:27;15.57;;;5.90;;
7703;SDS011;3894;49.700;10.770;2023-03-01T16:57:53;15.30;;;6.60;;
7703;SDS011;3894;49.700;10.770;2023-03-01T17:00:18;18.95;;;6.95;;
7703;SDS011;3894;49.700;10.770;2023-03-01T17:02:44;18.17;;;6.47;;
7703;SDS011;3894;49.700;10.770;2023-03-01T17:05:10;14.80;;;5.90;;
7703;SDS011;3894;49.700;10.770;2023-03-01T17:07:36;16.20;;;6.05;;
7703;SDS011;3894;49.700;10.770;2023-03-01T17:10:06;14.93;;;6.00;;
7703;SDS011;3894;49.700;10.770;2023-03-01T17:12:37;15.60;;;6.35;;
7703;SDS011;3894;49.700;10.770;2023-03-01T17:15:04;16.65;;;6.68;;
7703;SDS011;3894;49.700;10.770;2023-03-01T17:17:30;17.42;;;6.93;;
7703;SDS011;3894;49.700;10.770;2023-03-01T17:19:56;15.68;;;6.68;;
7703;SDS011;3894;49.700;10.770;2023-03-01T17:22:22;19.40;;;6.85;;
7703;SDS011;3894;49.700;10.770;2023-03-01T17:24:47;16.73;;;7.22;;
7703;SDS011;3894;49.700;10.770;2023-03-01T17:27:16;14.07;;;6.43;;
7703;SDS011;3894;49.700;10.770;2023-03-01T17:29:42;17.50;;;6.80;;
7703;SDS011;3894;49.700;10.770;2023-03-01T17:32:08;20.33;;;9.55;;
7703;SDS011;3894;49.700;10.770;2023-03-01T17:34:34;18.50;;;7.35;;
7703;SDS011;3894;49.700;10.770;2023-03-01T17:37:07;18.80;;;7.20;;
7703;SDS011;3894;49.700;10.770;2023-03-01T17:39:35;16.77;;;7.63;;
7703;SDS011;3894;49.700;10.770;2023-03-01T17:42:06;18.02;;;7.30;;
7703;SDS011;3894;49.700;10.770;2023-03-01T17:44:35;17.60;;;7.13;;
7703;SDS011;3894;49.700;10.770;2023-03-01T17:47:03;18.70;;;7.47;;
7703;SDS011;3894;49.700;10.770;2023-03-01T17:49:29;18.77;;;7.50;;
7703;SDS011;3894;49.700;10.770;2023-03-01T17:51:55;24.40;;;9.10;;
7703;SDS011;3894;49.700;10.770;2023-03-01T17:54:21;16.75;;;7.10;;
7703;SDS011;3894;49.700;10.770;2023-03-01T17:56:47;17.35;;;6.82;;
7703;SDS011;3894;49.700;10.770;2023-03-01T17:59:13;18.35;;;7.65;;
7703;SDS011;3894;49.700;10.770;2023-03-01T18:04:07;17.88;;;8.00;;
7703;SDS011;3894;49.700;10.770;2023-03-01T18:06:34;17.55;;;7.95;;
7703;SDS011;3894;49.700;10.770;2023-03-01T18:09:00;18.35;;;7.00;;
7703;SDS011;3894;49.700;10.770;2023-03-01T18:11:26;20.42;;;7.97;;
7703;SDS011;3894;49.700;10.770;2023-03-01T18:13:52;17.48;;;7.38;;
7703;SDS011;3894;49.700;10.770;2023-03-01T18:16:19;15.73;;;7.35;;
7703;SDS011;3894;49.700;10.770;2023-03-01T18:18:46;20.45;;;8.68;;
7703;SDS011;3894;49.700;10.770;2023-03-01T18:21:16;19.77;;;7.38;;
7703;SDS011;3894;49.700;10.770;2023-03-01T18:23:42;22.88;;;8.68;;
7703;SDS011;3894;49.700;10.770;2023-03-01T18:26:09;18.58;;;7.20;;
7703;SDS011;3894;49.700;10.770;2023-03-01T18:28:36;19.30;;;7.95;;
7703;SDS011;3894;49.700;10.770;2023-03-01T18:31:04;17.38;;;7.55;;
7703;SDS011;3894;49.700;10.770;2023-03-01T18:36:04;18.40;;;7.57;;
7703;SDS011;3894;49.700;10.770;2023-03-01T18:38:30;19.67;;;7.78;;
7703;SDS011;3894;49.700;10.770;2023-03-01T18:40:56;17.60;;;8.20;;
7703;SDS011;3894;49.700;10.770;2023-03-01T18:43:22;18.98;;;8.18;;
7703;SDS011;3894;49.700;10.770;2023-03-01T18:45:56;18.10;;;7.22;;
7703;SDS011;3894;49.700;10.770;2023-03-01T18:48:22;19.75;;;8.35;;
7703;SDS011;3894;49.700;10.770;2023-03-01T18:50:47;22.73;;;9.07;;
7703;SDS011;3894;49.700;10.770;2023-03-01T18:53:13;18.48;;;8.07;;
7703;SDS011;3894;49.700;10.770;2023-03-01T18:55:39;18.20;;;8.05;;
7703;SDS011;3894;49.700;10.770;2023-03-01T18:58:04;21.48;;;7.63;;
7703;SDS011;3894;49.700;10.770;2023-03-01T19:00:30;21.88;;;8.52;;
7703;SDS011;3894;49.700;10.770;2023-03-01T19:02:57;24.08;;;9.32;;
7703;SDS011;3894;49.700;10.770;2023-03-01T19:05:25;20.10;;;8.93;;
7703;SDS011;3894;49.700;10.770;2023-03-01T19:07:51;19.83;;;8.95;;
7703;SDS011;3894;49.700;10.770;2023-03-01T19:10:17;19.08;;;8.85;;
7703;SDS011;3894;49.700;10.770;2023-03-01T19:12:42;20.10;;;8.27;;
7703;SDS011;3894;49.700;10.770;2023-03-01T19:15:08;20.17;;;8.13;;
7703;SDS011;3894;49.700;10.770;2023-03-01T19:17:34;21.60;;;9.02;;
7703;SDS011;3894;49.700;10.770;2023-03-01T19:20:00;22.65;;;9.25;;
7703;SDS011;3894;49.700;10.770;2023-03-01T19:22:25;25.30;;;8.45;;
7703;SDS011;3894;49.700;10.770;2023-03-01T19:24:51;19.13;;;8.43;;
7703;SDS011;3894;49.700;10.770;2023-03-01T19:27:17;20.67;;;10.13;;
7703;SDS011;3894;49.700;10.770;2023-03-01T19:29:43;21.45;;;8.50;;
7703;SDS011;3894;49.700;10.770;2023-03-01T19:32:09;21.83;;;9.00;;
7703;SDS011;3894;49.700;10.770;2023-03-01T19:34:34;23.00;;;8.95;;
7703;SDS011;3894;49.700;10.770;2023-03-01T19:37:02;18.77;;;8.55;;
7703;SDS011;3894;49.700;10.770;2023-03-01T19:39:28;20.52;;;8.75;;
7703;SDS011;3894;49.700;10.770;2023-03-01T19:41:54;19.83;;;8.55;;
7703;SDS011;3894;49.700;10.770;2023-03-01T19:44:20;19.88;;;7.93;;
7703;SDS011;3894;49.700;10.770;2023-03-01T19:49:18;20.52;;;8.07;;
7703;SDS011;3894;49.700;10.770;2023-03-01T19:51:44;22.45;;;8.38;;
7703;SDS011;3894;49.700;10.770;2023-03-01T19:54:09;22.30;;;9.10;;
7703;SDS011;3894;49.700;10.770;2023-03-01T19:56:36;23.17;;;8.73;;